Hitomimaru — JD4014 — position and weather

sailwx.info

Track history (hours):
 
Tides and Currents Weather Stations Pressure Air Temp Water Temp Dewpoint Dewpoint Depression Visibility Wind Speed Wind Dir Waves Ship Positions

Hitomimaru

Last reported at 2017-Nov-24 00:00 UTC. Time now 2017-Nov-24 00:24 UTC.
Position N 35°21' E 139°49'.

Length 35 m; draft 3.9 m.

Type: Tug. MMSI: 431007965.

Date/timePositionNaut miles runAvg speedWind from/ knotsBaromVisibWave heightAir tempDewpointWater temp
2017-Nov-24 00:00N 35°21' E 139°49'2 3.8
2017-Nov-23 23:30N 35°22' E 139°50'3 5.1
2017-Nov-23 22:54N 35°22' E 139°54'0 0.0
2017-Nov-23 22:29N 35°22' E 139°54'0 0.0
2017-Nov-23 21:58N 35°22' E 139°54'0 0.0
2017-Nov-23 21:29N 35°22' E 139°54'0 0.0
2017-Nov-23 20:59N 35°22' E 139°54'0 0.0
2017-Nov-23 20:29N 35°22' E 139°54'0 0.0
2017-Nov-23 19:57N 35°22' E 139°54'0 0.0
2017-Nov-23 19:30N 35°22' E 139°54'0 0.0
2017-Nov-23 18:59N 35°22' E 139°54'0 0.0
2017-Nov-23 18:29N 35°22' E 139°54'0 0.0
2017-Nov-23 18:00N 35°22' E 139°54'0 0.0
2017-Nov-23 17:30N 35°22' E 139°54'0 0.0
2017-Nov-23 17:00N 35°22' E 139°54'0 0.0
2017-Nov-23 16:30N 35°22' E 139°54'0 0.0
2017-Nov-23 15:50N 35°22' E 139°54'0 0.0
2017-Nov-23 15:30N 35°22' E 139°54'0 0.0
2017-Nov-23 14:59N 35°22' E 139°54'0 0.0
2017-Nov-23 14:24N 35°22' E 139°54'0 0.0
2017-Nov-23 14:00N 35°22' E 139°54'0 0.0
2017-Nov-23 13:30N 35°22' E 139°54'0 0.0
2017-Nov-23 12:59N 35°22' E 139°54'0 0.0
2017-Nov-23 12:16N 35°22' E 139°54'0 0.0
2017-Nov-23 10:54N 35°22' E 139°54'0 0.0
2017-Nov-23 10:26N 35°22' E 139°54'0 0.0
2017-Nov-23 09:53N 35°22' E 139°54'1 1.8
2017-Nov-23 09:30N 35°22' E 139°53'2 3.6
2017-Nov-23 09:00N 35°23' E 139°51'0 0.6
2017-Nov-23 08:30N 35°23' E 139°51'1 1.3
2017-Nov-23 07:59N 35°22' E 139°52'1 2.2
2017-Nov-23 07:30N 35°22' E 139°53'0 0.3
2017-Nov-23 06:22N 35°22' E 139°53'0 0.0
2017-Nov-23 06:00N 35°22' E 139°53'1 1.2
2017-Nov-23 05:30N 35°22' E 139°52'0 0.1
2017-Nov-23 05:00N 35°22' E 139°52'3 4.0
2017-Nov-23 04:17N 35°24' E 139°49'2 6.1
2017-Nov-23 04:00N 35°25' E 139°48'2 4.3
2017-Nov-23 03:30N 35°26' E 139°50'4 8.2
2017-Nov-23 03:00N 35°22' E 139°52'2 0.3
2017-Nov-22 21:23N 35°22' E 139°54'0 0.0
2017-Nov-22 19:32N 35°22' E 139°54'0 0.0
2017-Nov-22 19:20N 35°22' E 139°54'  
2017-Nov-20 00:30N 35°22' E 139°53'0 0.0
2017-Nov-19 23:57N 35°22' E 139°53'0 0.5
2017-Nov-19 23:30N 35°22' E 139°53'1 0.1
2017-Nov-19 12:26N 35°22' E 139°54'1 3.0
2017-Nov-19 11:59N 35°22' E 139°52'0 0.2
2017-Nov-19 11:30N 35°22' E 139°52'0 0.3
2017-Nov-19 11:00N 35°22' E 139°52'1 1.1
2017-Nov-19 10:30N 35°22' E 139°52'2 0.2
2017-Nov-18 23:39N 35°22' E 139°54'0 0.0
2017-Nov-18 20:39N 35°22' E 139°54'0 0.0
2017-Nov-18 01:51N 35°22' E 139°54'3 8.2
2017-Nov-18 01:30N 35°22' E 139°50'2 3.9
2017-Nov-18 01:00N 35°20' E 139°49'0 0.4
2017-Nov-18 00:30N 35°20' E 139°49'0 0.2
2017-Nov-18 00:00N 35°20' E 139°49'0 0.5
2017-Nov-17 23:30N 35°20' E 139°49'0 0.5
2017-Nov-17 23:00N 35°21' E 139°49'0 0.6
2017-Nov-17 22:30N 35°20' E 139°49'0 0.5
2017-Nov-17 22:00N 35°21' E 139°49'0 0.6
2017-Nov-17 21:30N 35°20' E 139°49'0 0.2
2017-Nov-17 21:00N 35°20' E 139°49'0 0.1
2017-Nov-17 20:30N 35°20' E 139°49'0 0.2
2017-Nov-17 20:00N 35°20' E 139°49'0 0.5
2017-Nov-17 19:30N 35°20' E 139°49'0 0.0
2017-Nov-17 19:00N 35°20' E 139°49'0 0.0
2017-Nov-17 18:30N 35°20' E 139°49'0 0.1
2017-Nov-17 18:00N 35°20' E 139°49'0 0.0
2017-Nov-17 17:30N 35°20' E 139°49'0 0.0
2017-Nov-17 17:00N 35°20' E 139°49'0 0.0
2017-Nov-17 16:30N 35°20' E 139°49'0 0.1
2017-Nov-17 16:00N 35°20' E 139°49'0 0.0
2017-Nov-17 15:30N 35°20' E 139°49'0 0.1
2017-Nov-17 15:00N 35°20' E 139°49'0 0.0
2017-Nov-17 14:30N 35°20' E 139°49'0 0.0
2017-Nov-17 14:00N 35°20' E 139°49'0 0.0
2017-Nov-17 13:30N 35°20' E 139°49'0 0.8
2017-Nov-17 13:00N 35°21' E 139°49'0 0.3
2017-Nov-17 12:30N 35°21' E 139°49'0 0.2
2017-Nov-17 12:00N 35°21' E 139°49'0 0.2
2017-Nov-17 11:30N 35°21' E 139°49'0 0.1
2017-Nov-17 11:00N 35°21' E 139°49'0 0.1
2017-Nov-17 10:30N 35°20' E 139°49'0 0.1
2017-Nov-17 10:00N 35°21' E 139°49'0 0.1
2017-Nov-17 09:30N 35°20' E 139°49'0 0.1
2017-Nov-17 09:01N 35°20' E 139°49'0 0.1
2017-Nov-17 08:30N 35°20' E 139°49'0 0.1
2017-Nov-17 08:00N 35°20' E 139°49'0 0.1
2017-Nov-17 07:30N 35°20' E 139°49'0 0.1
2017-Nov-17 07:00N 35°20' E 139°49'0 0.1
2017-Nov-17 06:30N 35°20' E 139°49'0 0.3
2017-Nov-17 06:01N 35°21' E 139°49'0 0.4
2017-Nov-17 05:30N 35°20' E 139°49'0 0.3
2017-Nov-17 05:01N 35°21' E 139°49'0 0.1
2017-Nov-17 04:31N 35°20' E 139°49'0 0.3
2017-Nov-17 04:00N 35°21' E 139°49'0 0.5
2017-Nov-17 03:30N 35°20' E 139°49'0 0.2
2017-Nov-17 03:00N 35°20' E 139°49'0 0.3
2017-Nov-17 02:31N 35°20' E 139°49'0 0.5
2017-Nov-17 02:01N 35°21' E 139°49'0 0.1
2017-Nov-17 01:30N 35°21' E 139°49'0 0.2
2017-Nov-17 01:00N 35°20' E 139°49'3 6.1
2017-Nov-17 00:30N 35°22' E 139°53'0 0.0
2017-Nov-17 00:00N 35°22' E 139°53'0 0.0
2017-Nov-16 23:30N 35°22' E 139°53'1 1.4
2017-Nov-16 23:00N 35°22' E 139°53'0 0.0
2017-Nov-16 05:58N 35°22' E 139°53'4 8.0
2017-Nov-16 05:30N 35°21' E 139°49'0 0.9
2017-Nov-16 05:00N 35°21' E 139°49'0 0.0
2017-Nov-16 04:30N 35°21' E 139°49'0 0.4
2017-Nov-16 04:00N 35°21' E 139°49'2 3.8
2017-Nov-16 03:30N 35°22' E 139°48'2 3.4
2017-Nov-16 03:01N 35°23' E 139°46'1 1.2
2017-Nov-16 02:30N 35°22' E 139°46'3 5.0
2017-Nov-16 02:00N 35°21' E 139°49'1 1.4
2017-Nov-16 01:30N 35°21' E 139°49'0 0.2
2017-Nov-16 01:00N 35°21' E 139°49'1 1.2
2017-Nov-16 00:31N 35°21' E 139°49'0 0.0
2017-Nov-16 00:00N 35°21' E 139°49'0 0.0
2017-Nov-15 23:31N 35°21' E 139°49'1 2.9
2017-Nov-15 23:01N 35°21' E 139°51'0 0.0
2017-Nov-15 22:30N 35°21' E 139°51'1 2.3
2017-Nov-15 22:00N 35°22' E 139°50'1 1.4
2017-Nov-15 21:30N 35°22' E 139°51'0 0.9
2017-Nov-15 21:00N 35°21' E 139°51'0 0.1
2017-Nov-15 20:30N 35°21' E 139°51'2 0.1
2017-Nov-15 02:42N 35°22' E 139°54'2 6.7
2017-Nov-15 02:28N 35°22' E 139°52'3 5.7
2017-Nov-15 02:00N 35°21' E 139°49'0 0.0
2017-Nov-15 01:30N 35°21' E 139°49'0 0.1
2017-Nov-15 01:00N 35°21' E 139°49'1 1.9
2017-Nov-15 00:30N 35°22' E 139°49'2 4.6
2017-Nov-15 00:01N 35°23' E 139°46'1 1.1
2017-Nov-14 23:30N 35°22' E 139°46'5 9.7
2017-Nov-14 23:00N 35°22' E 139°52'1 0.1
2017-Nov-14 05:19N 35°22' E 139°53'3 9.0
2017-Nov-14 04:58N 35°25' E 139°52'510.7
2017-Nov-14 04:30N 35°28' E 139°56'1 2.9
2017-Nov-14 03:59N 35°27' E 139°57'1 1.8
2017-Nov-14 03:30N 35°28' E 139°58'2 3.0
2017-Nov-14 02:57N 35°29' E 139°56'1 2.5
2017-Nov-14 02:30N 35°28' E 139°55'2 3.7
2017-Nov-14 01:59N 35°28' E 139°53'1 2.4
2017-Nov-14 01:29N 35°27' E 139°53'4 8.7
2017-Nov-14 01:00N 35°24' E 139°52'  
Track history (hours):
 
Tides and Currents Weather Stations Pressure Air Temp Water Temp Dewpoint Dewpoint Depression Visibility Wind Speed Wind Dir Waves Ship Positions

Hitomimaru

Last reported at 2017-Nov-24 00:00 UTC. Time now 2017-Nov-24 00:24 UTC.
Position N 35°21' E 139°49'.

Length 35 m; draft 3.9 m.

Type: Tug. MMSI: 431007965.

Date/timePositionNaut miles runAvg speedWind from/ knotsBaromVisibWave heightAir tempDewpointWater temp
2017-Nov-24 00:00N 35°21' E 139°49'2 3.8
2017-Nov-23 23:30N 35°22' E 139°50'3 5.1
2017-Nov-23 22:54N 35°22' E 139°54'0 0.0
2017-Nov-23 22:29N 35°22' E 139°54'0 0.0
2017-Nov-23 21:58N 35°22' E 139°54'0 0.0
2017-Nov-23 21:29N 35°22' E 139°54'0 0.0
2017-Nov-23 20:59N 35°22' E 139°54'0 0.0
2017-Nov-23 20:29N 35°22' E 139°54'0 0.0
2017-Nov-23 19:57N 35°22' E 139°54'0 0.0
2017-Nov-23 19:30N 35°22' E 139°54'0 0.0
2017-Nov-23 18:59N 35°22' E 139°54'0 0.0
2017-Nov-23 18:29N 35°22' E 139°54'0 0.0
2017-Nov-23 18:00N 35°22' E 139°54'0 0.0
2017-Nov-23 17:30N 35°22' E 139°54'0 0.0
2017-Nov-23 17:00N 35°22' E 139°54'0 0.0
2017-Nov-23 16:30N 35°22' E 139°54'0 0.0
2017-Nov-23 15:50N 35°22' E 139°54'0 0.0
2017-Nov-23 15:30N 35°22' E 139°54'0 0.0
2017-Nov-23 14:59N 35°22' E 139°54'0 0.0
2017-Nov-23 14:24N 35°22' E 139°54'0 0.0
2017-Nov-23 14:00N 35°22' E 139°54'0 0.0
2017-Nov-23 13:30N 35°22' E 139°54'0 0.0
2017-Nov-23 12:59N 35°22' E 139°54'0 0.0
2017-Nov-23 12:16N 35°22' E 139°54'0 0.0
2017-Nov-23 10:54N 35°22' E 139°54'0 0.0
2017-Nov-23 10:26N 35°22' E 139°54'0 0.0
2017-Nov-23 09:53N 35°22' E 139°54'1 1.8
2017-Nov-23 09:30N 35°22' E 139°53'2 3.6
2017-Nov-23 09:00N 35°23' E 139°51'0 0.6
2017-Nov-23 08:30N 35°23' E 139°51'1 1.3
2017-Nov-23 07:59N 35°22' E 139°52'1 2.2
2017-Nov-23 07:30N 35°22' E 139°53'0 0.3
2017-Nov-23 06:22N 35°22' E 139°53'0 0.0
2017-Nov-23 06:00N 35°22' E 139°53'1 1.2
2017-Nov-23 05:30N 35°22' E 139°52'0 0.1
2017-Nov-23 05:00N 35°22' E 139°52'3 4.0
2017-Nov-23 04:17N 35°24' E 139°49'2 6.1
2017-Nov-23 04:00N 35°25' E 139°48'2 4.3
2017-Nov-23 03:30N 35°26' E 139°50'4 8.2
2017-Nov-23 03:00N 35°22' E 139°52'2 0.3
2017-Nov-22 21:23N 35°22' E 139°54'0 0.0
2017-Nov-22 19:32N 35°22' E 139°54'0 0.0
2017-Nov-22 19:20N 35°22' E 139°54'  
2017-Nov-20 00:30N 35°22' E 139°53'0 0.0
2017-Nov-19 23:57N 35°22' E 139°53'0 0.5
2017-Nov-19 23:30N 35°22' E 139°53'1 0.1
2017-Nov-19 12:26N 35°22' E 139°54'1 3.0
2017-Nov-19 11:59N 35°22' E 139°52'0 0.2
2017-Nov-19 11:30N 35°22' E 139°52'0 0.3
2017-Nov-19 11:00N 35°22' E 139°52'1 1.1
2017-Nov-19 10:30N 35°22' E 139°52'2 0.2
2017-Nov-18 23:39N 35°22' E 139°54'0 0.0
2017-Nov-18 20:39N 35°22' E 139°54'0 0.0
2017-Nov-18 01:51N 35°22' E 139°54'3 8.2
2017-Nov-18 01:30N 35°22' E 139°50'2 3.9
2017-Nov-18 01:00N 35°20' E 139°49'0 0.4
2017-Nov-18 00:30N 35°20' E 139°49'0 0.2
2017-Nov-18 00:00N 35°20' E 139°49'0 0.5
2017-Nov-17 23:30N 35°20' E 139°49'0 0.5
2017-Nov-17 23:00N 35°21' E 139°49'0 0.6
2017-Nov-17 22:30N 35°20' E 139°49'0 0.5
2017-Nov-17 22:00N 35°21' E 139°49'0 0.6
2017-Nov-17 21:30N 35°20' E 139°49'0 0.2
2017-Nov-17 21:00N 35°20' E 139°49'0 0.1
2017-Nov-17 20:30N 35°20' E 139°49'0 0.2
2017-Nov-17 20:00N 35°20' E 139°49'0 0.5
2017-Nov-17 19:30N 35°20' E 139°49'0 0.0
2017-Nov-17 19:00N 35°20' E 139°49'0 0.0
2017-Nov-17 18:30N 35°20' E 139°49'0 0.1
2017-Nov-17 18:00N 35°20' E 139°49'0 0.0
2017-Nov-17 17:30N 35°20' E 139°49'0 0.0
2017-Nov-17 17:00N 35°20' E 139°49'0 0.0
2017-Nov-17 16:30N 35°20' E 139°49'0 0.1
2017-Nov-17 16:00N 35°20' E 139°49'0 0.0
2017-Nov-17 15:30N 35°20' E 139°49'0 0.1
2017-Nov-17 15:00N 35°20' E 139°49'0 0.0
2017-Nov-17 14:30N 35°20' E 139°49'0 0.0
2017-Nov-17 14:00N 35°20' E 139°49'0 0.0
2017-Nov-17 13:30N 35°20' E 139°49'0 0.8
2017-Nov-17 13:00N 35°21' E 139°49'0 0.3
2017-Nov-17 12:30N 35°21' E 139°49'0 0.2
2017-Nov-17 12:00N 35°21' E 139°49'0 0.2
2017-Nov-17 11:30N 35°21' E 139°49'0 0.1
2017-Nov-17 11:00N 35°21' E 139°49'0 0.1
2017-Nov-17 10:30N 35°20' E 139°49'0 0.1
2017-Nov-17 10:00N 35°21' E 139°49'0 0.1
2017-Nov-17 09:30N 35°20' E 139°49'0 0.1
2017-Nov-17 09:01N 35°20' E 139°49'0 0.1
2017-Nov-17 08:30N 35°20' E 139°49'0 0.1
2017-Nov-17 08:00N 35°20' E 139°49'0 0.1
2017-Nov-17 07:30N 35°20' E 139°49'0 0.1
2017-Nov-17 07:00N 35°20' E 139°49'0 0.1
2017-Nov-17 06:30N 35°20' E 139°49'0 0.3
2017-Nov-17 06:01N 35°21' E 139°49'0 0.4
2017-Nov-17 05:30N 35°20' E 139°49'0 0.3
2017-Nov-17 05:01N 35°21' E 139°49'0 0.1
2017-Nov-17 04:31N 35°20' E 139°49'0 0.3
2017-Nov-17 04:00N 35°21' E 139°49'0 0.5
2017-Nov-17 03:30N 35°20' E 139°49'0 0.2
2017-Nov-17 03:00N 35°20' E 139°49'0 0.3
2017-Nov-17 02:31N 35°20' E 139°49'0 0.5
2017-Nov-17 02:01N 35°21' E 139°49'0 0.1
2017-Nov-17 01:30N 35°21' E 139°49'0 0.2
2017-Nov-17 01:00N 35°20' E 139°49'3 6.1
2017-Nov-17 00:30N 35°22' E 139°53'0 0.0
2017-Nov-17 00:00N 35°22' E 139°53'0 0.0
2017-Nov-16 23:30N 35°22' E 139°53'1 1.4
2017-Nov-16 23:00N 35°22' E 139°53'0 0.0
2017-Nov-16 05:58N 35°22' E 139°53'4 8.0
2017-Nov-16 05:30N 35°21' E 139°49'0 0.9
2017-Nov-16 05:00N 35°21' E 139°49'0 0.0
2017-Nov-16 04:30N 35°21' E 139°49'0 0.4
2017-Nov-16 04:00N 35°21' E 139°49'2 3.8
2017-Nov-16 03:30N 35°22' E 139°48'2 3.4
2017-Nov-16 03:01N 35°23' E 139°46'1 1.2
2017-Nov-16 02:30N 35°22' E 139°46'3 5.0
2017-Nov-16 02:00N 35°21' E 139°49'1 1.4
2017-Nov-16 01:30N 35°21' E 139°49'0 0.2
2017-Nov-16 01:00N 35°21' E 139°49'1 1.2
2017-Nov-16 00:31N 35°21' E 139°49'0 0.0
2017-Nov-16 00:00N 35°21' E 139°49'0 0.0
2017-Nov-15 23:31N 35°21' E 139°49'1 2.9
2017-Nov-15 23:01N 35°21' E 139°51'0 0.0
2017-Nov-15 22:30N 35°21' E 139°51'1 2.3
2017-Nov-15 22:00N 35°22' E 139°50'1 1.4
2017-Nov-15 21:30N 35°22' E 139°51'0 0.9
2017-Nov-15 21:00N 35°21' E 139°51'0 0.1
2017-Nov-15 20:30N 35°21' E 139°51'2 0.1
2017-Nov-15 02:42N 35°22' E 139°54'2 6.7
2017-Nov-15 02:28N 35°22' E 139°52'3 5.7
2017-Nov-15 02:00N 35°21' E 139°49'0 0.0
2017-Nov-15 01:30N 35°21' E 139°49'0 0.1
2017-Nov-15 01:00N 35°21' E 139°49'1 1.9
2017-Nov-15 00:30N 35°22' E 139°49'2 4.6
2017-Nov-15 00:01N 35°23' E 139°46'1 1.1
2017-Nov-14 23:30N 35°22' E 139°46'5 9.7
2017-Nov-14 23:00N 35°22' E 139°52'1 0.1
2017-Nov-14 05:19N 35°22' E 139°53'3 9.0
2017-Nov-14 04:58N 35°25' E 139°52'510.7
2017-Nov-14 04:30N 35°28' E 139°56'1 2.9
2017-Nov-14 03:59N 35°27' E 139°57'1 1.8
2017-Nov-14 03:30N 35°28' E 139°58'2 3.0
2017-Nov-14 02:57N 35°29' E 139°56'1 2.5
2017-Nov-14 02:30N 35°28' E 139°55'2 3.7
2017-Nov-14 01:59N 35°28' E 139°53'1 2.4
2017-Nov-14 01:29N 35°27' E 139°53'4 8.7
2017-Nov-14 01:00N 35°24' E 139°52'  

Dump ship's entire track history